sensor_id;sensor_type;location;lat;lon;timestamp;P1;durP1;ratioP1;P2;durP2;ratioP2
20997;SDS011;10657;51.276;6.390;2023-08-17T00:01:31;8.63;;;3.30;;
20997;SDS011;10657;51.276;6.390;2023-08-17T00:03:58;5.72;;;2.40;;
20997;SDS011;10657;51.276;6.390;2023-08-17T00:06:25;5.35;;;2.65;;
20997;SDS011;10657;51.276;6.390;2023-08-17T00:08:52;7.13;;;3.15;;
20997;SDS011;10657;51.276;6.390;2023-08-17T00:11:18;8.65;;;3.25;;
20997;SDS011;10657;51.276;6.390;2023-08-17T00:13:45;6.38;;;2.70;;
20997;SDS011;10657;51.276;6.390;2023-08-17T00:16:12;5.53;;;2.67;;
20997;SDS011;10657;51.276;6.390;2023-08-17T00:18:38;7.70;;;3.40;;
20997;SDS011;10657;51.276;6.390;2023-08-17T00:21:05;11.65;;;4.20;;
20997;SDS011;10657;51.276;6.390;2023-08-17T00:23:32;10.95;;;3.80;;
20997;SDS011;10657;51.276;6.390;2023-08-17T00:25:59;6.78;;;3.03;;
20997;SDS011;10657;51.276;6.390;2023-08-17T00:28:26;5.88;;;3.03;;
20997;SDS011;10657;51.276;6.390;2023-08-17T00:30:52;5.95;;;2.72;;
20997;SDS011;10657;51.276;6.390;2023-08-17T00:33:19;6.55;;;2.88;;
20997;SDS011;10657;51.276;6.390;2023-08-17T00:35:46;8.27;;;2.90;;
20997;SDS011;10657;51.276;6.390;2023-08-17T00:38:12;5.90;;;3.00;;
20997;SDS011;10657;51.276;6.390;2023-08-17T00:40:39;7.07;;;2.88;;
20997;SDS011;10657;51.276;6.390;2023-08-17T00:43:06;7.38;;;2.50;;
20997;SDS011;10657;51.276;6.390;2023-08-17T00:45:33;7.93;;;2.97;;
20997;SDS011;10657;51.276;6.390;2023-08-17T00:48:01;6.38;;;2.60;;
20997;SDS011;10657;51.276;6.390;2023-08-17T00:50:31;6.60;;;2.63;;
20997;SDS011;10657;51.276;6.390;2023-08-17T00:52:58;7.18;;;2.58;;
20997;SDS011;10657;51.276;6.390;2023-08-17T00:55:25;6.93;;;2.60;;
20997;SDS011;10657;51.276;6.390;2023-08-17T00:57:52;7.15;;;2.97;;
20997;SDS011;10657;51.276;6.390;2023-08-17T01:00:22;5.63;;;2.30;;
20997;SDS011;10657;51.276;6.390;2023-08-17T01:02:51;5.88;;;2.70;;
20997;SDS011;10657;51.276;6.390;2023-08-17T01:05:19;6.60;;;2.65;;
20997;SDS011;10657;51.276;6.390;2023-08-17T01:07:46;7.38;;;3.15;;
20997;SDS011;10657;51.276;6.390;2023-08-17T01:10:13;7.50;;;3.22;;
20997;SDS011;10657;51.276;6.390;2023-08-17T01:12:45;8.02;;;3.92;;
20997;SDS011;10657;51.276;6.390;2023-08-17T01:15:20;7.97;;;3.80;;
20997;SDS011;10657;51.276;6.390;2023-08-17T01:17:58;6.05;;;3.13;;
20997;SDS011;10657;51.276;6.390;2023-08-17T01:20:34;8.48;;;3.38;;
20997;SDS011;10657;51.276;6.390;2023-08-17T01:23:04;10.07;;;3.35;;
20997;SDS011;10657;51.276;6.390;2023-08-17T01:25:32;10.57;;;3.35;;
20997;SDS011;10657;51.276;6.390;2023-08-17T01:28:03;7.25;;;3.10;;
20997;SDS011;10657;51.276;6.390;2023-08-17T01:30:44;6.15;;;2.78;;
20997;SDS011;10657;51.276;6.390;2023-08-17T01:33:31;8.38;;;3.55;;
20997;SDS011;10657;51.276;6.390;2023-08-17T01:36:20;7.70;;;3.55;;
20997;SDS011;10657;51.276;6.390;2023-08-17T01:38:51;7.63;;;3.50;;
20997;SDS011;10657;51.276;6.390;2023-08-17T01:41:20;6.20;;;2.50;;
20997;SDS011;10657;51.276;6.390;2023-08-17T01:43:49;6.25;;;2.38;;
20997;SDS011;10657;51.276;6.390;2023-08-17T01:46:17;9.05;;;3.10;;
20997;SDS011;10657;51.276;6.390;2023-08-17T01:48:44;7.75;;;2.83;;
20997;SDS011;10657;51.276;6.390;2023-08-17T01:51:15;6.45;;;3.08;;
20997;SDS011;10657;51.276;6.390;2023-08-17T01:53:46;5.05;;;2.25;;
20997;SDS011;10657;51.276;6.390;2023-08-17T01:56:13;6.40;;;2.80;;
20997;SDS011;10657;51.276;6.390;2023-08-17T01:58:40;5.28;;;2.20;;
20997;SDS011;10657;51.276;6.390;2023-08-17T02:01:07;4.65;;;2.08;;
20997;SDS011;10657;51.276;6.390;2023-08-17T02:03:33;6.07;;;2.50;;
20997;SDS011;10657;51.276;6.390;2023-08-17T02:06:00;6.55;;;2.58;;
20997;SDS011;10657;51.276;6.390;2023-08-17T02:08:27;7.30;;;2.42;;
20997;SDS011;10657;51.276;6.390;2023-08-17T02:10:54;7.75;;;3.30;;
20997;SDS011;10657;51.276;6.390;2023-08-17T02:13:20;7.13;;;2.53;;
20997;SDS011;10657;51.276;6.390;2023-08-17T02:15:47;7.25;;;3.35;;
20997;SDS011;10657;51.276;6.390;2023-08-17T02:18:14;6.95;;;3.22;;
20997;SDS011;10657;51.276;6.390;2023-08-17T02:20:41;8.77;;;3.65;;
20997;SDS011;10657;51.276;6.390;2023-08-17T02:23:08;7.85;;;3.42;;
20997;SDS011;10657;51.276;6.390;2023-08-17T02:25:37;7.40;;;3.40;;
20997;SDS011;10657;51.276;6.390;2023-08-17T02:28:06;7.82;;;3.65;;
20997;SDS011;10657;51.276;6.390;2023-08-17T02:30:33;7.57;;;3.13;;
20997;SDS011;10657;51.276;6.390;2023-08-17T02:33:00;6.05;;;3.10;;
20997;SDS011;10657;51.276;6.390;2023-08-17T02:35:27;8.25;;;3.22;;
20997;SDS011;10657;51.276;6.390;2023-08-17T02:37:54;7.63;;;3.28;;
20997;SDS011;10657;51.276;6.390;2023-08-17T02:40:21;6.47;;;3.15;;
20997;SDS011;10657;51.276;6.390;2023-08-17T02:42:47;7.60;;;3.70;;
20997;SDS011;10657;51.276;6.390;2023-08-17T02:45:14;9.88;;;3.80;;
20997;SDS011;10657;51.276;6.390;2023-08-17T02:47:41;6.50;;;2.42;;
20997;SDS011;10657;51.276;6.390;2023-08-17T02:50:08;7.38;;;3.75;;
20997;SDS011;10657;51.276;6.390;2023-08-17T02:52:34;9.25;;;3.78;;
20997;SDS011;10657;51.276;6.390;2023-08-17T02:55:01;9.57;;;3.67;;
20997;SDS011;10657;51.276;6.390;2023-08-17T02:57:28;6.55;;;3.00;;
20997;SDS011;10657;51.276;6.390;2023-08-17T02:59:55;8.07;;;3.15;;
20997;SDS011;10657;51.276;6.390;2023-08-17T03:02:21;9.75;;;3.67;;
20997;SDS011;10657;51.276;6.390;2023-08-17T03:04:48;6.13;;;3.00;;
20997;SDS011;10657;51.276;6.390;2023-08-17T03:07:15;5.57;;;2.88;;
20997;SDS011;10657;51.276;6.390;2023-08-17T03:09:41;6.30;;;3.10;;
20997;SDS011;10657;51.276;6.390;2023-08-17T03:12:08;7.78;;;3.25;;
20997;SDS011;10657;51.276;6.390;2023-08-17T03:14:35;8.98;;;3.25;;
20997;SDS011;10657;51.276;6.390;2023-08-17T03:17:01;10.15;;;3.50;;
20997;SDS011;10657;51.276;6.390;2023-08-17T03:19:28;6.70;;;3.10;;
20997;SDS011;10657;51.276;6.390;2023-08-17T03:21:55;7.60;;;2.95;;
20997;SDS011;10657;51.276;6.390;2023-08-17T03:24:21;6.47;;;2.70;;
20997;SDS011;10657;51.276;6.390;2023-08-17T03:26:48;4.88;;;2.10;;
20997;SDS011;10657;51.276;6.390;2023-08-17T03:29:15;7.15;;;2.80;;
20997;SDS011;10657;51.276;6.390;2023-08-17T03:31:42;6.15;;;2.45;;
20997;SDS011;10657;51.276;6.390;2023-08-17T03:34:08;8.50;;;2.67;;
20997;SDS011;10657;51.276;6.390;2023-08-17T03:36:35;7.30;;;2.97;;
20997;SDS011;10657;51.276;6.390;2023-08-17T03:39:02;7.03;;;2.50;;
20997;SDS011;10657;51.276;6.390;2023-08-17T03:41:28;5.38;;;2.25;;
20997;SDS011;10657;51.276;6.390;2023-08-17T03:43:56;6.50;;;2.60;;
20997;SDS011;10657;51.276;6.390;2023-08-17T03:46:22;6.70;;;2.38;;
20997;SDS011;10657;51.276;6.390;2023-08-17T03:48:49;6.85;;;2.78;;
20997;SDS011;10657;51.276;6.390;2023-08-17T03:51:16;7.20;;;3.20;;
20997;SDS011;10657;51.276;6.390;2023-08-17T03:53:42;8.10;;;3.17;;
20997;SDS011;10657;51.276;6.390;2023-08-17T03:56:09;7.82;;;3.28;;
20997;SDS011;10657;51.276;6.390;2023-08-17T03:58:36;12.15;;;3.10;;
20997;SDS011;10657;51.276;6.390;2023-08-17T04:01:03;4.05;;;1.80;;
20997;SDS011;10657;51.276;6.390;2023-08-17T04:03:32;5.70;;;2.40;;
20997;SDS011;10657;51.276;6.390;2023-08-17T04:06:04;4.97;;;2.25;;
20997;SDS011;10657;51.276;6.390;2023-08-17T04:08:36;8.95;;;3.45;;
20997;SDS011;10657;51.276;6.390;2023-08-17T04:11:04;9.88;;;3.90;;
20997;SDS011;10657;51.276;6.390;2023-08-17T04:13:31;7.90;;;3.63;;
20997;SDS011;10657;51.276;6.390;2023-08-17T04:15:58;8.57;;;3.13;;
20997;SDS011;10657;51.276;6.390;2023-08-17T04:18:25;10.88;;;2.65;;
20997;SDS011;10657;51.276;6.390;2023-08-17T04:20:52;9.23;;;2.70;;
20997;SDS011;10657;51.276;6.390;2023-08-17T04:23:20;8.95;;;3.70;;
20997;SDS011;10657;51.276;6.390;2023-08-17T04:25:47;7.10;;;2.97;;
20997;SDS011;10657;51.276;6.390;2023-08-17T04:28:14;5.10;;;2.10;;
20997;SDS011;10657;51.276;6.390;2023-08-17T04:30:42;6.68;;;3.15;;
20997;SDS011;10657;51.276;6.390;2023-08-17T04:33:09;7.43;;;2.30;;
20997;SDS011;10657;51.276;6.390;2023-08-17T04:35:36;7.68;;;3.35;;
20997;SDS011;10657;51.276;6.390;2023-08-17T04:38:03;5.43;;;2.50;;
20997;SDS011;10657;51.276;6.390;2023-08-17T04:40:29;8.57;;;3.35;;
20997;SDS011;10657;51.276;6.390;2023-08-17T04:42:56;8.45;;;3.45;;
20997;SDS011;10657;51.276;6.390;2023-08-17T04:45:23;5.65;;;2.35;;
20997;SDS011;10657;51.276;6.390;2023-08-17T04:47:50;9.23;;;3.15;;
20997;SDS011;10657;51.276;6.390;2023-08-17T04:50:17;5.32;;;2.08;;
20997;SDS011;10657;51.276;6.390;2023-08-17T04:52:44;9.05;;;3.50;;
20997;SDS011;10657;51.276;6.390;2023-08-17T04:55:11;6.90;;;2.55;;
20997;SDS011;10657;51.276;6.390;2023-08-17T04:57:41;7.43;;;3.33;;
20997;SDS011;10657;51.276;6.390;2023-08-17T05:00:08;7.80;;;3.00;;
20997;SDS011;10657;51.276;6.390;2023-08-17T05:02:36;7.25;;;2.90;;
20997;SDS011;10657;51.276;6.390;2023-08-17T05:05:07;7.38;;;3.17;;
20997;SDS011;10657;51.276;6.390;2023-08-17T05:07:36;7.13;;;2.97;;
20997;SDS011;10657;51.276;6.390;2023-08-17T05:10:02;5.60;;;2.63;;
20997;SDS011;10657;51.276;6.390;2023-08-17T05:12:29;8.07;;;3.05;;
20997;SDS011;10657;51.276;6.390;2023-08-17T05:14:56;7.28;;;3.45;;
20997;SDS011;10657;51.276;6.390;2023-08-17T05:17:23;7.95;;;3.20;;
20997;SDS011;10657;51.276;6.390;2023-08-17T05:19:50;10.93;;;3.40;;
20997;SDS011;10657;51.276;6.390;2023-08-17T05:22:17;9.38;;;3.75;;
20997;SDS011;10657;51.276;6.390;2023-08-17T05:24:44;8.23;;;3.67;;
20997;SDS011;10657;51.276;6.390;2023-08-17T05:27:11;7.45;;;3.05;;
20997;SDS011;10657;51.276;6.390;2023-08-17T05:29:37;7.55;;;3.75;;
20997;SDS011;10657;51.276;6.390;2023-08-17T05:32:04;10.68;;;4.00;;
20997;SDS011;10657;51.276;6.390;2023-08-17T05:34:31;5.63;;;1.92;;
20997;SDS011;10657;51.276;6.390;2023-08-17T05:36:58;9.80;;;4.10;;
20997;SDS011;10657;51.276;6.390;2023-08-17T05:39:25;7.18;;;3.50;;
20997;SDS011;10657;51.276;6.390;2023-08-17T05:41:52;6.70;;;2.97;;
20997;SDS011;10657;51.276;6.390;2023-08-17T05:44:19;10.45;;;3.47;;
20997;SDS011;10657;51.276;6.390;2023-08-17T05:46:46;10.02;;;3.75;;
20997;SDS011;10657;51.276;6.390;2023-08-17T05:49:13;6.75;;;2.47;;
20997;SDS011;10657;51.276;6.390;2023-08-17T05:51:40;8.88;;;4.18;;
20997;SDS011;10657;51.276;6.390;2023-08-17T05:54:07;6.43;;;2.45;;
20997;SDS011;10657;51.276;6.390;2023-08-17T05:56:33;7.32;;;2.90;;
20997;SDS011;10657;51.276;6.390;2023-08-17T05:59:00;9.68;;;3.55;;
20997;SDS011;10657;51.276;6.390;2023-08-17T06:01:27;7.57;;;3.08;;
20997;SDS011;10657;51.276;6.390;2023-08-17T06:03:54;6.05;;;2.40;;
20997;SDS011;10657;51.276;6.390;2023-08-17T06:06:20;5.18;;;1.85;;
20997;SDS011;10657;51.276;6.390;2023-08-17T06:08:47;7.47;;;3.70;;
20997;SDS011;10657;51.276;6.390;2023-08-17T06:11:14;6.57;;;2.65;;
20997;SDS011;10657;51.276;6.390;2023-08-17T06:13:40;4.63;;;2.22;;
20997;SDS011;10657;51.276;6.390;2023-08-17T06:16:07;6.32;;;3.20;;
20997;SDS011;10657;51.276;6.390;2023-08-17T06:18:34;5.63;;;2.30;;
20997;SDS011;10657;51.276;6.390;2023-08-17T06:21:04;8.25;;;2.65;;
20997;SDS011;10657;51.276;6.390;2023-08-17T06:23:31;7.95;;;3.67;;
20997;SDS011;10657;51.276;6.390;2023-08-17T06:25:58;6.60;;;2.83;;
20997;SDS011;10657;51.276;6.390;2023-08-17T06:28:25;8.10;;;4.25;;
20997;SDS011;10657;51.276;6.390;2023-08-17T06:30:53;10.32;;;4.88;;
20997;SDS011;10657;51.276;6.390;2023-08-17T06:33:20;8.27;;;3.38;;
20997;SDS011;10657;51.276;6.390;2023-08-17T06:35:48;6.35;;;3.25;;
20997;SDS011;10657;51.276;6.390;2023-08-17T06:38:15;9.07;;;4.22;;
20997;SDS011;10657;51.276;6.390;2023-08-17T06:40:42;9.98;;;5.00;;
20997;SDS011;10657;51.276;6.390;2023-08-17T06:43:09;10.05;;;4.53;;
20997;SDS011;10657;51.276;6.390;2023-08-17T06:45:36;8.20;;;3.88;;
20997;SDS011;10657;51.276;6.390;2023-08-17T06:48:02;10.48;;;4.80;;
20997;SDS011;10657;51.276;6.390;2023-08-17T06:50:29;10.27;;;5.38;;
20997;SDS011;10657;51.276;6.390;2023-08-17T06:52:56;7.20;;;2.80;;
20997;SDS011;10657;51.276;6.390;2023-08-17T06:55:22;14.73;;;4.95;;
20997;SDS011;10657;51.276;6.390;2023-08-17T06:57:49;12.50;;;4.70;;
20997;SDS011;10657;51.276;6.390;2023-08-17T07:00:18;9.32;;;4.38;;
20997;SDS011;10657;51.276;6.390;2023-08-17T07:02:48;14.25;;;5.72;;
20997;SDS011;10657;51.276;6.390;2023-08-17T07:05:22;17.08;;;5.55;;
20997;SDS011;10657;51.276;6.390;2023-08-17T07:07:49;11.63;;;5.63;;
20997;SDS011;10657;51.276;6.390;2023-08-17T07:10:16;11.80;;;6.20;;
20997;SDS011;10657;51.276;6.390;2023-08-17T07:12:43;12.02;;;6.10;;
20997;SDS011;10657;51.276;6.390;2023-08-17T07:15:10;8.95;;;4.25;;
20997;SDS011;10657;51.276;6.390;2023-08-17T07:17:37;13.13;;;7.78;;
20997;SDS011;10657;51.276;6.390;2023-08-17T07:20:04;11.27;;;5.18;;
20997;SDS011;10657;51.276;6.390;2023-08-17T07:22:42;13.10;;;7.22;;
20997;SDS011;10657;51.276;6.390;2023-08-17T07:25:09;19.40;;;9.80;;
20997;SDS011;10657;51.276;6.390;2023-08-17T07:27:36;18.60;;;11.63;;
20997;SDS011;10657;51.276;6.390;2023-08-17T07:30:02;16.67;;;10.50;;
20997;SDS011;10657;51.276;6.390;2023-08-17T07:32:29;19.10;;;10.43;;
20997;SDS011;10657;51.276;6.390;2023-08-17T07:34:56;16.33;;;9.82;;
20997;SDS011;10657;51.276;6.390;2023-08-17T07:37:23;19.65;;;10.95;;
20997;SDS011;10657;51.276;6.390;2023-08-17T07:39:50;16.75;;;10.15;;
20997;SDS011;10657;51.276;6.390;2023-08-17T07:42:17;20.20;;;12.80;;
20997;SDS011;10657;51.276;6.390;2023-08-17T07:44:44;18.42;;;11.38;;
20997;SDS011;10657;51.276;6.390;2023-08-17T07:47:10;22.35;;;13.25;;
20997;SDS011;10657;51.276;6.390;2023-08-17T07:49:37;21.80;;;13.98;;
20997;SDS011;10657;51.276;6.390;2023-08-17T07:52:03;20.13;;;12.27;;
20997;SDS011;10657;51.276;6.390;2023-08-17T07:54:30;23.85;;;14.68;;
20997;SDS011;10657;51.276;6.390;2023-08-17T07:56:58;20.73;;;13.48;;
20997;SDS011;10657;51.276;6.390;2023-08-17T07:59:24;24.00;;;14.57;;
20997;SDS011;10657;51.276;6.390;2023-08-17T08:01:51;15.98;;;10.98;;
20997;SDS011;10657;51.276;6.390;2023-08-17T08:04:18;23.23;;;13.32;;
20997;SDS011;10657;51.276;6.390;2023-08-17T08:06:45;22.70;;;14.00;;
20997;SDS011;10657;51.276;6.390;2023-08-17T08:09:12;21.67;;;13.30;;
20997;SDS011;10657;51.276;6.390;2023-08-17T08:11:39;25.17;;;13.43;;
20997;SDS011;10657;51.276;6.390;2023-08-17T08:14:05;24.52;;;14.45;;
20997;SDS011;10657;51.276;6.390;2023-08-17T08:16:32;24.52;;;13.50;;
20997;SDS011;10657;51.276;6.390;2023-08-17T08:18:59;24.70;;;14.93;;
20997;SDS011;10657;51.276;6.390;2023-08-17T08:21:26;23.80;;;15.13;;
20997;SDS011;10657;51.276;6.390;2023-08-17T08:23:54;24.15;;;14.52;;
20997;SDS011;10657;51.276;6.390;2023-08-17T08:26:20;23.48;;;15.15;;
20997;SDS011;10657;51.276;6.390;2023-08-17T08:28:47;29.63;;;17.27;;
20997;SDS011;10657;51.276;6.390;2023-08-17T08:31:14;28.73;;;17.10;;
20997;SDS011;10657;51.276;6.390;2023-08-17T08:33:41;29.77;;;17.95;;
20997;SDS011;10657;51.276;6.390;2023-08-17T08:36:07;27.88;;;17.33;;
20997;SDS011;10657;51.276;6.390;2023-08-17T08:38:34;23.85;;;15.60;;
20997;SDS011;10657;51.276;6.390;2023-08-17T08:41:01;25.48;;;16.05;;
20997;SDS011;10657;51.276;6.390;2023-08-17T08:43:28;34.58;;;21.50;;
20997;SDS011;10657;51.276;6.390;2023-08-17T08:45:55;28.55;;;18.63;;
20997;SDS011;10657;51.276;6.390;2023-08-17T08:48:24;28.25;;;17.95;;
20997;SDS011;10657;51.276;6.390;2023-08-17T08:50:54;32.15;;;21.30;;
20997;SDS011;10657;51.276;6.390;2023-08-17T08:53:32;32.67;;;21.55;;
20997;SDS011;10657;51.276;6.390;2023-08-17T08:56:04;29.58;;;15.32;;
20997;SDS011;10657;51.276;6.390;2023-08-17T08:58:36;31.23;;;19.38;;
20997;SDS011;10657;51.276;6.390;2023-08-17T09:01:06;27.23;;;16.88;;
20997;SDS011;10657;51.276;6.390;2023-08-17T09:03:36;27.85;;;19.58;;
20997;SDS011;10657;51.276;6.390;2023-08-17T09:06:03;28.92;;;18.67;;
20997;SDS011;10657;51.276;6.390;2023-08-17T09:08:30;26.30;;;15.75;;
20997;SDS011;10657;51.276;6.390;2023-08-17T09:10:57;26.00;;;16.17;;
20997;SDS011;10657;51.276;6.390;2023-08-17T09:13:24;33.50;;;24.52;;
20997;SDS011;10657;51.276;6.390;2023-08-17T09:15:51;29.35;;;19.20;;
20997;SDS011;10657;51.276;6.390;2023-08-17T09:18:19;36.40;;;26.33;;
20997;SDS011;10657;51.276;6.390;2023-08-17T09:20:46;26.75;;;16.45;;
20997;SDS011;10657;51.276;6.390;2023-08-17T09:23:15;30.08;;;20.85;;
20997;SDS011;10657;51.276;6.390;2023-08-17T09:25:44;29.08;;;19.10;;
20997;SDS011;10657;51.276;6.390;2023-08-17T09:28:18;37.40;;;24.95;;
20997;SDS011;10657;51.276;6.390;2023-08-17T09:30:58;30.23;;;22.08;;
20997;SDS011;10657;51.276;6.390;2023-08-17T09:33:27;33.08;;;20.15;;
20997;SDS011;10657;51.276;6.390;2023-08-17T09:35:56;30.42;;;20.75;;
20997;SDS011;10657;51.276;6.390;2023-08-17T09:38:25;23.67;;;17.23;;
20997;SDS011;10657;51.276;6.390;2023-08-17T09:40:54;23.55;;;15.57;;
20997;SDS011;10657;51.276;6.390;2023-08-17T09:43:21;29.63;;;22.58;;
20997;SDS011;10657;51.276;6.390;2023-08-17T09:45:48;33.42;;;20.00;;
20997;SDS011;10657;51.276;6.390;2023-08-17T09:48:17;23.60;;;16.95;;
20997;SDS011;10657;51.276;6.390;2023-08-17T09:50:45;12.70;;;7.30;;
20997;SDS011;10657;51.276;6.390;2023-08-17T09:53:13;20.23;;;12.55;;
20997;SDS011;10657;51.276;6.390;2023-08-17T09:55:41;26.45;;;15.85;;
20997;SDS011;10657;51.276;6.390;2023-08-17T09:58:09;24.23;;;16.35;;
20997;SDS011;10657;51.276;6.390;2023-08-17T10:00:47;23.25;;;16.45;;
20997;SDS011;10657;51.276;6.390;2023-08-17T10:03:18;27.80;;;18.63;;
20997;SDS011;10657;51.276;6.390;2023-08-17T10:05:47;26.17;;;17.50;;
20997;SDS011;10657;51.276;6.390;2023-08-17T10:08:25;36.35;;;24.77;;
20997;SDS011;10657;51.276;6.390;2023-08-17T10:10:56;25.25;;;16.83;;
20997;SDS011;10657;51.276;6.390;2023-08-17T10:13:31;23.15;;;15.98;;
20997;SDS011;10657;51.276;6.390;2023-08-17T10:16:08;33.67;;;22.45;;
20997;SDS011;10657;51.276;6.390;2023-08-17T10:21:36;27.40;;;18.73;;
20997;SDS011;10657;51.276;6.390;2023-08-17T10:24:08;23.75;;;14.32;;
20997;SDS011;10657;51.276;6.390;2023-08-17T10:26:35;30.58;;;21.50;;
20997;SDS011;10657;51.276;6.390;2023-08-17T10:29:02;30.65;;;21.95;;
20997;SDS011;10657;51.276;6.390;2023-08-17T10:31:39;35.63;;;25.13;;
20997;SDS011;10657;51.276;6.390;2023-08-17T10:34:13;34.45;;;20.50;;
20997;SDS011;10657;51.276;6.390;2023-08-17T10:36:40;36.53;;;23.50;;
20997;SDS011;10657;51.276;6.390;2023-08-17T10:39:26;28.73;;;19.45;;
20997;SDS011;10657;51.276;6.390;2023-08-17T10:41:56;35.70;;;22.83;;
20997;SDS011;10657;51.276;6.390;2023-08-17T10:47:26;29.58;;;17.50;;
20997;SDS011;10657;51.276;6.390;2023-08-17T10:50:20;25.33;;;17.42;;
20997;SDS011;10657;51.276;6.390;2023-08-17T10:52:49;27.25;;;18.77;;
20997;SDS011;10657;51.276;6.390;2023-08-17T10:55:34;29.90;;;18.95;;
20997;SDS011;10657;51.276;6.390;2023-08-17T10:58:02;31.27;;;19.50;;
20997;SDS011;10657;51.276;6.390;2023-08-17T11:00:34;27.83;;;19.77;;
20997;SDS011;10657;51.276;6.390;2023-08-17T11:03:06;28.25;;;19.25;;
20997;SDS011;10657;51.276;6.390;2023-08-17T11:05:52;28.45;;;16.35;;
20997;SDS011;10657;51.276;6.390;2023-08-17T11:11:05;27.80;;;15.77;;
20997;SDS011;10657;51.276;6.390;2023-08-17T11:13:39;27.08;;;18.00;;
20997;SDS011;10657;51.276;6.390;2023-08-17T11:16:11;27.20;;;18.30;;
20997;SDS011;10657;51.276;6.390;2023-08-17T11:18:44;25.55;;;17.38;;
20997;SDS011;10657;51.276;6.390;2023-08-17T11:21:10;32.20;;;20.33;;
20997;SDS011;10657;51.276;6.390;2023-08-17T11:23:37;29.65;;;19.17;;
20997;SDS011;10657;51.276;6.390;2023-08-17T11:26:04;25.83;;;17.88;;
20997;SDS011;10657;51.276;6.390;2023-08-17T11:28:31;25.50;;;17.73;;
20997;SDS011;10657;51.276;6.390;2023-08-17T11:31:08;38.97;;;23.65;;
20997;SDS011;10657;51.276;6.390;2023-08-17T11:33:36;38.13;;;26.35;;
20997;SDS011;10657;51.276;6.390;2023-08-17T11:36:04;28.75;;;20.23;;
20997;SDS011;10657;51.276;6.390;2023-08-17T11:38:33;30.83;;;20.23;;
20997;SDS011;10657;51.276;6.390;2023-08-17T11:41:01;28.50;;;19.83;;
20997;SDS011;10657;51.276;6.390;2023-08-17T11:43:32;28.15;;;19.92;;
20997;SDS011;10657;51.276;6.390;2023-08-17T11:46:00;25.98;;;17.92;;
20997;SDS011;10657;51.276;6.390;2023-08-17T11:48:28;29.15;;;18.88;;
20997;SDS011;10657;51.276;6.390;2023-08-17T11:51:02;26.17;;;16.23;;
20997;SDS011;10657;51.276;6.390;2023-08-17T11:53:33;33.58;;;23.10;;
20997;SDS011;10657;51.276;6.390;2023-08-17T11:56:01;25.42;;;17.80;;
20997;SDS011;10657;51.276;6.390;2023-08-17T11:58:41;29.63;;;21.20;;
20997;SDS011;10657;51.276;6.390;2023-08-17T12:01:10;32.78;;;22.60;;
20997;SDS011;10657;51.276;6.390;2023-08-17T12:03:38;34.60;;;23.85;;
20997;SDS011;10657;51.276;6.390;2023-08-17T12:06:06;25.52;;;18.67;;
20997;SDS011;10657;51.276;6.390;2023-08-17T12:08:33;31.98;;;22.00;;
20997;SDS011;10657;51.276;6.390;2023-08-17T12:11:00;31.83;;;22.55;;
20997;SDS011;10657;51.276;6.390;2023-08-17T12:13:34;30.05;;;21.92;;
20997;SDS011;10657;51.276;6.390;2023-08-17T12:16:02;24.33;;;18.25;;
20997;SDS011;10657;51.276;6.390;2023-08-17T12:18:33;26.73;;;20.20;;
20997;SDS011;10657;51.276;6.390;2023-08-17T12:21:00;32.55;;;24.45;;
20997;SDS011;10657;51.276;6.390;2023-08-17T12:23:27;24.08;;;16.67;;
20997;SDS011;10657;51.276;6.390;2023-08-17T12:25:54;26.52;;;18.42;;
20997;SDS011;10657;51.276;6.390;2023-08-17T12:28:22;26.60;;;18.77;;
20997;SDS011;10657;51.276;6.390;2023-08-17T12:31:01;26.33;;;18.05;;
20997;SDS011;10657;51.276;6.390;2023-08-17T12:33:29;28.10;;;19.58;;
20997;SDS011;10657;51.276;6.390;2023-08-17T12:35:56;27.00;;;18.50;;
20997;SDS011;10657;51.276;6.390;2023-08-17T12:38:24;25.52;;;17.70;;
20997;SDS011;10657;51.276;6.390;2023-08-17T12:40:51;23.83;;;15.98;;
20997;SDS011;10657;51.276;6.390;2023-08-17T12:43:18;26.95;;;18.30;;
20997;SDS011;10657;51.276;6.390;2023-08-17T12:45:45;29.05;;;20.15;;
20997;SDS011;10657;51.276;6.390;2023-08-17T12:48:12;28.17;;;19.45;;
20997;SDS011;10657;51.276;6.390;2023-08-17T12:50:39;27.20;;;18.60;;
20997;SDS011;10657;51.276;6.390;2023-08-17T12:53:08;32.35;;;22.27;;
20997;SDS011;10657;51.276;6.390;2023-08-17T12:55:35;39.17;;;27.10;;
20997;SDS011;10657;51.276;6.390;2023-08-17T12:58:02;33.20;;;26.35;;
20997;SDS011;10657;51.276;6.390;2023-08-17T13:00:29;28.60;;;20.33;;
20997;SDS011;10657;51.276;6.390;2023-08-17T13:02:56;37.67;;;26.00;;
20997;SDS011;10657;51.276;6.390;2023-08-17T13:05:22;24.75;;;17.02;;
20997;SDS011;10657;51.276;6.390;2023-08-17T13:07:49;30.67;;;20.50;;
20997;SDS011;10657;51.276;6.390;2023-08-17T13:10:16;27.73;;;18.55;;
20997;SDS011;10657;51.276;6.390;2023-08-17T13:12:43;31.15;;;22.20;;
20997;SDS011;10657;51.276;6.390;2023-08-17T13:15:09;27.30;;;19.58;;
20997;SDS011;10657;51.276;6.390;2023-08-17T13:17:36;31.33;;;23.55;;
20997;SDS011;10657;51.276;6.390;2023-08-17T13:20:03;30.15;;;21.00;;
20997;SDS011;10657;51.276;6.390;2023-08-17T13:22:32;47.70;;;36.88;;
20997;SDS011;10657;51.276;6.390;2023-08-17T13:24:59;36.50;;;25.33;;
20997;SDS011;10657;51.276;6.390;2023-08-17T13:27:26;37.05;;;25.08;;
20997;SDS011;10657;51.276;6.390;2023-08-17T13:29:53;29.17;;;20.58;;
20997;SDS011;10657;51.276;6.390;2023-08-17T13:32:20;30.45;;;20.92;;
20997;SDS011;10657;51.276;6.390;2023-08-17T13:34:47;30.85;;;22.33;;
20997;SDS011;10657;51.276;6.390;2023-08-17T13:37:14;27.15;;;20.38;;
20997;SDS011;10657;51.276;6.390;2023-08-17T13:39:41;27.73;;;19.90;;
20997;SDS011;10657;51.276;6.390;2023-08-17T13:42:07;26.10;;;18.15;;
20997;SDS011;10657;51.276;6.390;2023-08-17T13:44:34;25.05;;;18.00;;
20997;SDS011;10657;51.276;6.390;2023-08-17T13:47:01;30.63;;;19.92;;
20997;SDS011;10657;51.276;6.390;2023-08-17T13:49:28;32.97;;;21.42;;
20997;SDS011;10657;51.276;6.390;2023-08-17T13:51:55;30.95;;;21.00;;
20997;SDS011;10657;51.276;6.390;2023-08-17T13:54:23;32.00;;;23.85;;
20997;SDS011;10657;51.276;6.390;2023-08-17T13:56:50;35.15;;;22.50;;
20997;SDS011;10657;51.276;6.390;2023-08-17T13:59:17;30.98;;;22.15;;
20997;SDS011;10657;51.276;6.390;2023-08-17T14:01:44;26.13;;;17.92;;
20997;SDS011;10657;51.276;6.390;2023-08-17T14:04:11;31.70;;;22.40;;
20997;SDS011;10657;51.276;6.390;2023-08-17T14:06:39;31.67;;;21.67;;
20997;SDS011;10657;51.276;6.390;2023-08-17T14:09:06;27.27;;;17.60;;
20997;SDS011;10657;51.276;6.390;2023-08-17T14:11:33;29.77;;;20.20;;
20997;SDS011;10657;51.276;6.390;2023-08-17T14:14:00;31.52;;;22.67;;
20997;SDS011;10657;51.276;6.390;2023-08-17T14:16:26;33.90;;;24.25;;
20997;SDS011;10657;51.276;6.390;2023-08-17T14:18:53;27.90;;;19.58;;
20997;SDS011;10657;51.276;6.390;2023-08-17T14:21:20;30.20;;;19.70;;
20997;SDS011;10657;51.276;6.390;2023-08-17T14:23:47;25.23;;;17.67;;
20997;SDS011;10657;51.276;6.390;2023-08-17T14:26:15;30.83;;;20.48;;
20997;SDS011;10657;51.276;6.390;2023-08-17T14:28:41;36.88;;;25.15;;
20997;SDS011;10657;51.276;6.390;2023-08-17T14:31:12;30.35;;;21.98;;
20997;SDS011;10657;51.276;6.390;2023-08-17T14:33:43;21.67;;;15.20;;
20997;SDS011;10657;51.276;6.390;2023-08-17T14:36:13;23.85;;;16.60;;
20997;SDS011;10657;51.276;6.390;2023-08-17T14:38:45;25.88;;;16.88;;
20997;SDS011;10657;51.276;6.390;2023-08-17T14:41:11;26.90;;;18.58;;
20997;SDS011;10657;51.276;6.390;2023-08-17T14:43:38;25.33;;;18.13;;
20997;SDS011;10657;51.276;6.390;2023-08-17T14:46:05;33.63;;;23.48;;
20997;SDS011;10657;51.276;6.390;2023-08-17T14:48:32;22.13;;;12.32;;